Time;durP1;ratioP1;P1;durP2;ratioP2;P2;SDS_P1;SDS_P2;PMS_P1;PMS_P2;Temp;Humidity;BMP_temperature;BMP_pressure;BME280_temperature;BME280_humidity;BME280_pressure;Samples;Min_cycle;Max_cycle;Signal;HPM_P1;HPM_P2
2024/01/22 00:00:44;;;;;;;0.30;0.30;;;;;;;;;;6237918;28;20021;-86
2024/01/22 00:03:44;;;;;;;0.30;0.30;;;;;;;;;;6244254;28;20127;-85
2024/01/22 00:06:45;;;;;;;0.30;0.30;;;;;;;;;;6228626;28;20387;-76
2024/01/22 00:09:45;;;;;;;0.30;0.30;;;;;;;;;;6246605;28;20120;-76
2024/01/22 00:12:45;;;;;;;0.33;0.33;;;;;;;;;;6246734;28;20558;-76
2024/01/22 00:15:45;;;;;;;0.40;0.40;;;;;;;;;;6246756;28;20059;-76
2024/01/22 00:18:46;;;;;;;0.47;0.47;;;;;;;;;;6246071;28;20028;-76
2024/01/22 00:21:47;;;;;;;0.40;0.40;;;;;;;;;;6246618;28;20491;-75
2024/01/22 00:24:47;;;;;;;0.30;0.30;;;;;;;;;;6246039;28;20272;-75
2024/01/22 00:27:48;;;;;;;0.30;0.30;;;;;;;;;;6246236;28;20392;-75
2024/01/22 00:30:48;;;;;;;0.30;0.30;;;;;;;;;;6245813;28;20025;-75
2024/01/22 00:33:48;;;;;;;0.30;0.30;;;;;;;;;;6245794;28;20017;-75
2024/01/22 00:36:48;;;;;;;0.30;0.30;;;;;;;;;;6227900;28;20030;-75
2024/01/22 00:39:51;;;;;;;0.40;0.40;;;;;;;;;;6245418;28;20056;-74
2024/01/22 00:42:51;;;;;;;0.40;0.40;;;;;;;;;;6245988;28;20065;-75
2024/01/22 00:45:51;;;;;;;0.33;0.33;;;;;;;;;;6227728;28;20052;-74
2024/01/22 00:48:52;;;;;;;0.40;0.40;;;;;;;;;;6245922;28;20727;-74
2024/01/22 00:51:52;;;;;;;0.40;0.40;;;;;;;;;;6244757;28;20629;-74
2024/01/22 00:54:52;;;;;;;0.40;0.40;;;;;;;;;;6232979;28;20025;-74
2024/01/22 00:57:52;;;;;;;0.50;0.50;;;;;;;;;;6236469;28;20056;-74
2024/01/22 01:00:53;;;;;;;0.40;0.40;;;;;;;;;;6249813;28;20023;-73
2024/01/22 01:03:56;;;;;;;0.50;0.50;;;;;;;;;;6254071;28;20488;-73
2024/01/22 01:06:56;;;;;;;0.40;0.40;;;;;;;;;;6245828;28;20033;-86
2024/01/22 01:09:56;;;;;;;0.40;0.40;;;;;;;;;;6244808;28;20029;-86
2024/01/22 01:12:57;;;;;;;0.40;0.40;;;;;;;;;;6244832;28;20033;-86
2024/01/22 01:15:57;;;;;;;0.40;0.40;;;;;;;;;;6258460;28;20021;-73
2024/01/22 01:18:57;;;;;;;0.40;0.40;;;;;;;;;;6244514;28;20014;-73
2024/01/22 01:21:58;;;;;;;0.40;0.40;;;;;;;;;;6227194;28;20013;-73
2024/01/22 01:24:58;;;;;;;0.40;0.40;;;;;;;;;;6245341;28;20025;-73
2024/01/22 01:27:58;;;;;;;0.50;0.50;;;;;;;;;;6244667;28;20021;-73
2024/01/22 01:30:58;;;;;;;0.50;0.50;;;;;;;;;;6244695;28;20824;-73
2024/01/22 01:33:59;;;;;;;0.40;0.40;;;;;;;;;;6244408;28;20022;-73
2024/01/22 01:36:59;;;;;;;0.40;0.40;;;;;;;;;;6244680;28;20028;-74
2024/01/22 01:39:59;;;;;;;0.50;0.50;;;;;;;;;;6244395;28;20025;-73
2024/01/22 01:42:59;;;;;;;0.40;0.40;;;;;;;;;;6244606;28;20116;-73
2024/01/22 01:46:00;;;;;;;0.43;0.43;;;;;;;;;;6239516;28;20025;-73
2024/01/22 01:49:01;;;;;;;0.40;0.40;;;;;;;;;;6225167;28;20049;-73
2024/01/22 01:52:01;;;;;;;0.50;0.50;;;;;;;;;;6241497;28;20022;-74
2024/01/22 01:55:02;;;;;;;0.50;0.50;;;;;;;;;;6244440;28;20041;-74
2024/01/22 01:58:02;;;;;;;0.40;0.40;;;;;;;;;;6226720;28;20022;-74
2024/01/22 02:01:03;;;;;;;0.40;0.40;;;;;;;;;;6257510;28;20076;-75
2024/01/22 02:04:03;;;;;;;0.40;0.40;;;;;;;;;;6227270;28;20023;-74
2024/01/22 02:07:04;;;;;;;0.40;0.40;;;;;;;;;;6256907;28;20022;-74
2024/01/22 02:10:04;;;;;;;0.50;0.50;;;;;;;;;;6223911;28;20121;-74
2024/01/22 02:13:08;;;;;;;0.43;0.43;;;;;;;;;;6243360;28;20029;-74
2024/01/22 02:16:09;;;;;;;0.40;0.40;;;;;;;;;;6225612;28;20036;-74
2024/01/22 02:19:09;;;;;;;0.40;0.40;;;;;;;;;;6238921;28;20018;-74
2024/01/22 02:22:09;;;;;;;0.50;0.50;;;;;;;;;;6243836;28;20052;-77
2024/01/22 02:25:10;;;;;;;0.40;0.40;;;;;;;;;;6249026;28;20025;-89
2024/01/22 02:28:10;;;;;;;0.43;0.43;;;;;;;;;;6251335;28;20518;-86
2024/01/22 02:31:10;;;;;;;0.40;0.40;;;;;;;;;;6257178;28;20128;-87
2024/01/22 02:34:11;;;;;;;0.40;0.40;;;;;;;;;;6226633;28;20053;-87
2024/01/22 02:37:12;;;;;;;0.50;0.50;;;;;;;;;;6233217;28;20029;-87
2024/01/22 02:40:12;;;;;;;0.50;0.50;;;;;;;;;;6240940;28;20030;-87
2024/01/22 02:43:12;;;;;;;0.40;0.40;;;;;;;;;;6243357;28;20041;-87
2024/01/22 02:46:15;;;;;;;0.43;0.43;;;;;;;;;;6243132;28;20356;-87
2024/01/22 02:49:16;;;;;;;0.40;0.40;;;;;;;;;;6242447;28;20045;-87
2024/01/22 02:52:17;;;;;;;0.50;0.50;;;;;;;;;;6243552;28;20148;-87
2024/01/22 02:55:17;;;;;;;0.45;0.45;;;;;;;;;;6242158;28;20033;-88
2024/01/22 02:58:17;;;;;;;0.43;0.43;;;;;;;;;;6243037;28;20025;-88
2024/01/22 03:01:17;;;;;;;0.30;0.30;;;;;;;;;;6242805;28;20053;-88
2024/01/22 03:04:18;;;;;;;0.50;0.50;;;;;;;;;;6237060;28;20487;-88
2024/01/22 03:07:18;;;;;;;0.40;0.40;;;;;;;;;;6228064;28;20035;-88
2024/01/22 03:10:18;;;;;;;0.40;0.40;;;;;;;;;;6220655;28;20019;-89
2024/01/22 03:13:18;;;;;;;0.40;0.40;;;;;;;;;;6224516;28;20017;-89
2024/01/22 03:16:19;;;;;;;0.50;0.50;;;;;;;;;;6235350;28;20022;-88
2024/01/22 03:19:19;;;;;;;0.40;0.40;;;;;;;;;;6236317;28;20495;-89
2024/01/22 03:22:19;;;;;;;0.40;0.40;;;;;;;;;;6236531;28;20167;-89
2024/01/22 03:25:19;;;;;;;0.43;0.43;;;;;;;;;;6233852;28;20100;-89
2024/01/22 03:28:21;;;;;;;0.40;0.40;;;;;;;;;;6225291;28;20052;-90
2024/01/22 03:31:22;;;;;;;0.50;0.50;;;;;;;;;;6256878;28;20021;-89
2024/01/22 03:34:22;;;;;;;0.40;0.40;;;;;;;;;;6242431;28;20108;-89
2024/01/22 03:37:22;;;;;;;0.60;0.60;;;;;;;;;;6223726;28;20123;-75
2024/01/22 03:40:23;;;;;;;0.50;0.50;;;;;;;;;;6240030;28;20025;-75
2024/01/22 03:43:23;;;;;;;0.50;0.50;;;;;;;;;;6247940;28;20037;-75
2024/01/22 03:46:23;;;;;;;0.50;0.50;;;;;;;;;;6249725;28;20026;-88
2024/01/22 03:49:24;;;;;;;0.50;0.50;;;;;;;;;;6239833;28;20025;-89
2024/01/22 03:52:24;;;;;;;0.50;0.50;;;;;;;;;;6225899;28;20100;-89
2024/01/22 03:55:24;;;;;;;0.57;0.57;;;;;;;;;;6225672;28;20037;-88
2024/01/22 03:58:24;;;;;;;0.60;0.60;;;;;;;;;;6208456;28;20511;-88
2024/01/22 04:01:25;;;;;;;0.40;0.40;;;;;;;;;;6225704;28;20122;-88
2024/01/22 04:04:25;;;;;;;0.40;0.40;;;;;;;;;;6225797;28;20474;-88
2024/01/22 04:07:25;;;;;;;0.40;0.40;;;;;;;;;;6225632;28;20083;-87
2024/01/22 04:10:26;;;;;;;0.40;0.40;;;;;;;;;;6225419;28;20084;-87
2024/01/22 04:13:27;;;;;;;0.43;0.43;;;;;;;;;;6208455;28;20072;-90
2024/01/22 04:16:27;;;;;;;0.50;0.50;;;;;;;;;;6225242;28;20419;-87
2024/01/22 04:19:27;;;;;;;0.40;0.40;;;;;;;;;;6225644;28;20066;-88
2024/01/22 04:22:27;;;;;;;0.47;0.47;;;;;;;;;;6225613;28;20049;-88
2024/01/22 04:25:27;;;;;;;0.47;0.47;;;;;;;;;;6208304;28;20036;-88
2024/01/22 04:28:28;;;;;;;0.53;0.53;;;;;;;;;;6224924;28;20022;-88
2024/01/22 04:31:28;;;;;;;0.50;0.50;;;;;;;;;;6215025;28;20031;-87
2024/01/22 04:34:28;;;;;;;0.50;0.50;;;;;;;;;;6236039;28;20022;-87
2024/01/22 04:37:28;;;;;;;0.50;0.50;;;;;;;;;;6217959;28;20514;-87
2024/01/22 04:40:29;;;;;;;0.40;0.40;;;;;;;;;;6234170;28;20021;-87
2024/01/22 04:43:29;;;;;;;0.47;0.47;;;;;;;;;;6225788;28;20053;-88
2024/01/22 04:46:29;;;;;;;0.40;0.40;;;;;;;;;;6220903;28;20385;-77
2024/01/22 04:49:29;;;;;;;0.40;0.40;;;;;;;;;;6222487;28;20056;-77
2024/01/22 04:52:30;;;;;;;0.47;0.47;;;;;;;;;;6207292;28;20404;-77
2024/01/22 04:55:30;;;;;;;0.40;0.40;;;;;;;;;;6220816;28;20469;-77
2024/01/22 04:58:30;;;;;;;0.70;0.70;;;;;;;;;;6221301;28;20032;-77
2024/01/22 05:01:31;;;;;;;0.40;0.40;;;;;;;;;;6203665;28;20052;-78
2024/01/22 05:04:31;;;;;;;0.40;0.40;;;;;;;;;;6216063;28;20046;-77
2024/01/22 05:07:31;;;;;;;0.50;0.50;;;;;;;;;;6234822;28;20060;-78
2024/01/22 05:10:31;;;;;;;0.50;0.50;;;;;;;;;;6220775;28;20053;-77
2024/01/22 05:13:32;;;;;;;0.50;0.50;;;;;;;;;;6220891;28;20095;-78
2024/01/22 05:16:33;;;;;;;0.50;0.50;;;;;;;;;;6219674;28;20033;-78
2024/01/22 05:19:33;;;;;;;0.40;0.40;;;;;;;;;;6218383;28;20030;-78
2024/01/22 05:22:34;;;;;;;0.43;0.43;;;;;;;;;;6194852;28;20108;-78
2024/01/22 05:25:34;;;;;;;0.47;0.47;;;;;;;;;;6211369;28;20030;-78
2024/01/22 05:28:35;;;;;;;0.60;0.60;;;;;;;;;;6195867;28;20465;-78
2024/01/22 05:31:35;;;;;;;0.43;0.43;;;;;;;;;;6195621;28;20470;-78
2024/01/22 05:34:35;;;;;;;0.50;0.50;;;;;;;;;;6196255;28;20037;-78
2024/01/22 05:37:36;;;;;;;0.50;0.50;;;;;;;;;;6229152;28;20021;-78
2024/01/22 05:40:36;;;;;;;0.40;0.40;;;;;;;;;;6210071;28;20068;-78
2024/01/22 05:43:36;;;;;;;0.40;0.40;;;;;;;;;;6220519;28;20053;-79
2024/01/22 05:46:37;;;;;;;0.40;0.40;;;;;;;;;;6231160;28;20029;-79
2024/01/22 05:49:37;;;;;;;0.40;0.40;;;;;;;;;;6213247;28;20018;-79
2024/01/22 05:52:37;;;;;;;0.40;0.40;;;;;;;;;;6225947;28;20014;-79
2024/01/22 05:55:39;;;;;;;0.40;0.40;;;;;;;;;;6203033;28;20116;-78
2024/01/22 05:58:39;;;;;;;0.40;0.40;;;;;;;;;;6219067;28;20042;-78
2024/01/22 06:01:40;;;;;;;0.50;0.50;;;;;;;;;;6200732;28;20400;-79
2024/01/22 06:04:41;;;;;;;0.40;0.40;;;;;;;;;;6211496;28;20033;-79
2024/01/22 06:07:42;;;;;;;;;;;;;;;;;;6218923;28;20026;-87
2024/01/22 06:10:42;;;;;;;0.40;0.40;;;;;;;;;;6205053;28;20316;-87
2024/01/22 06:13:43;;;;;;;0.40;0.40;;;;;;;;;;6211957;28;20421;-87
2024/01/22 06:16:46;;;;;;;0.40;0.40;;;;;;;;;;6189627;28;20568;-87
2024/01/22 06:19:46;;;;;;;0.50;0.50;;;;;;;;;;6215963;28;20022;-87
2024/01/22 06:22:47;;;;;;;0.40;0.40;;;;;;;;;;6215375;28;20132;-87
2024/01/22 06:25:48;;;;;;;0.33;0.33;;;;;;;;;;6210908;28;20285;-87
2024/01/22 06:28:48;;;;;;;0.50;0.50;;;;;;;;;;6203942;28;20025;-87
2024/01/22 06:31:48;;;;;;;0.60;0.60;;;;;;;;;;6219807;28;20029;-87
2024/01/22 06:34:49;;;;;;;0.40;0.40;;;;;;;;;;6219656;28;20107;-87
2024/01/22 06:37:49;;;;;;;0.50;0.50;;;;;;;;;;6198922;28;20100;-87
2024/01/22 06:40:49;;;;;;;0.50;0.50;;;;;;;;;;6199839;28;20408;-87
2024/01/22 06:43:50;;;;;;;0.50;0.50;;;;;;;;;;6206958;28;20064;-87
2024/01/22 06:46:50;;;;;;;0.43;0.43;;;;;;;;;;6199457;28;20042;-86
2024/01/22 06:49:50;;;;;;;0.40;0.40;;;;;;;;;;6201462;28;20033;-87
2024/01/22 06:52:51;;;;;;;0.40;0.40;;;;;;;;;;6215579;28;20503;-87
2024/01/22 06:55:53;;;;;;;0.40;0.40;;;;;;;;;;6197204;28;20473;-87
2024/01/22 06:58:53;;;;;;;0.55;0.55;;;;;;;;;;6217440;28;20380;-87
2024/01/22 07:01:53;;;;;;;0.40;0.40;;;;;;;;;;6209167;28;20023;-88
2024/01/22 07:04:55;;;;;;;0.40;0.40;;;;;;;;;;6209290;28;20026;-87
2024/01/22 07:07:56;;;;;;;0.40;0.40;;;;;;;;;;6194731;28;20290;-79
2024/01/22 07:10:57;;;;;;;0.40;0.40;;;;;;;;;;6225869;28;20026;-79
2024/01/22 07:13:58;;;;;;;0.40;0.40;;;;;;;;;;6231548;28;20050;-79
2024/01/22 07:16:58;;;;;;;0.40;0.40;;;;;;;;;;6207748;28;20400;-79
2024/01/22 07:19:58;;;;;;;0.30;0.30;;;;;;;;;;6217490;28;20650;-79
2024/01/22 07:22:58;;;;;;;0.30;0.30;;;;;;;;;;6214831;28;20037;-80
2024/01/22 07:25:59;;;;;;;0.30;0.30;;;;;;;;;;6226840;28;20033;-80
2024/01/22 07:28:59;;;;;;;0.30;0.30;;;;;;;;;;6199707;28;20037;-80
2024/01/22 07:32:00;;;;;;;0.20;0.20;;;;;;;;;;6214392;28;20404;-80
2024/01/22 07:35:00;;;;;;;0.30;0.30;;;;;;;;;;6185470;28;20073;-79
2024/01/22 07:38:00;;;;;;;0.30;0.30;;;;;;;;;;6215805;28;20036;-79
2024/01/22 07:41:01;;;;;;;0.30;0.30;;;;;;;;;;6214084;28;20370;-79
2024/01/22 07:44:01;;;;;;;0.20;0.20;;;;;;;;;;6213059;28;20030;-79
2024/01/22 07:47:01;;;;;;;0.30;0.30;;;;;;;;;;6223077;28;20074;-78
2024/01/22 07:50:06;;;;;;;0.20;0.20;;;;;;;;;;6220768;28;20029;-79
2024/01/22 07:53:07;;;;;;;0.20;0.20;;;;;;;;;;6225429;28;20128;-79
2024/01/22 07:56:08;;;;;;;0.20;0.20;;;;;;;;;;6219454;28;20083;-78
2024/01/22 07:59:09;;;;;;;0.20;0.20;;;;;;;;;;6207235;28;20022;-80
2024/01/22 08:02:09;;;;;;;0.20;0.20;;;;;;;;;;6204797;28;20029;-81
2024/01/22 08:05:13;;;;;;;0.20;0.20;;;;;;;;;;6192428;28;20034;-82
2024/01/22 08:08:14;;;;;;;0.20;0.20;;;;;;;;;;6217754;28;20026;-80
2024/01/22 08:11:14;;;;;;;0.10;0.10;;;;;;;;;;6209722;28;20395;-78
2024/01/22 08:14:14;;;;;;;0.20;0.20;;;;;;;;;;6185409;28;20026;-77
2024/01/22 08:17:14;;;;;;;0.20;0.20;;;;;;;;;;6206883;28;20065;-76
2024/01/22 08:20:16;;;;;;;0.20;0.20;;;;;;;;;;6199503;28;20024;-76
2024/01/22 08:23:17;;;;;;;0.10;0.10;;;;;;;;;;6204761;28;20050;-75
2024/01/22 08:26:17;;;;;;;0.20;0.20;;;;;;;;;;6207409;28;20051;-75
2024/01/22 08:29:17;;;;;;;0.20;0.20;;;;;;;;;;6212333;28;20481;-75
2024/01/22 08:32:17;;;;;;;0.20;0.20;;;;;;;;;;6215450;28;20026;-74
2024/01/22 08:35:18;;;;;;;0.20;0.20;;;;;;;;;;6214002;28;20026;-74
2024/01/22 08:38:18;;;;;;;0.20;0.20;;;;;;;;;;6221312;28;20048;-74
2024/01/22 08:41:18;;;;;;;0.20;0.20;;;;;;;;;;6206102;28;20122;-74
2024/01/22 08:44:19;;;;;;;0.20;0.20;;;;;;;;;;6221014;28;20006;-75
2024/01/22 08:47:19;;;;;;;0.20;0.20;;;;;;;;;;6218079;28;20048;-75
2024/01/22 08:50:21;;;;;;;0.20;0.20;;;;;;;;;;6221357;28;20025;-75
2024/01/22 08:53:21;;;;;;;0.20;0.20;;;;;;;;;;6214643;28;20488;-75
2024/01/22 08:56:21;;;;;;;0.17;0.17;;;;;;;;;;6214950;28;20109;-72
2024/01/22 08:59:21;;;;;;;0.10;0.10;;;;;;;;;;6215238;28;20025;-73
2024/01/22 09:02:22;;;;;;;0.10;0.10;;;;;;;;;;6213991;28;20029;-72
2024/01/22 09:05:22;;;;;;;0.20;0.20;;;;;;;;;;6215793;28;20065;-72
2024/01/22 09:08:22;;;;;;;0.10;0.10;;;;;;;;;;6233449;28;20029;-75
2024/01/22 09:11:22;;;;;;;0.20;0.20;;;;;;;;;;6220945;28;20448;-75
2024/01/22 09:14:23;;;;;;;0.20;0.20;;;;;;;;;;6211739;28;20384;-75
2024/01/22 09:17:23;;;;;;;0.10;0.10;;;;;;;;;;6212125;28;20068;-74
2024/01/22 09:20:23;;;;;;;0.10;0.10;;;;;;;;;;6223347;28;20110;-75
2024/01/22 09:23:24;;;;;;;0.20;0.20;;;;;;;;;;6231388;28;20112;-75
2024/01/22 09:26:26;;;;;;;0.10;0.10;;;;;;;;;;6236048;28;20022;-75
2024/01/22 09:29:26;;;;;;;0.10;0.10;;;;;;;;;;6242026;28;20030;-75
2024/01/22 09:32:26;;;;;;;0.20;0.20;;;;;;;;;;6212936;28;20084;-75
2024/01/22 09:35:27;;;;;;;0.10;0.10;;;;;;;;;;6202511;28;20022;-75
2024/01/22 09:38:27;;;;;;;0.10;0.10;;;;;;;;;;6220941;28;20483;-75
2024/01/22 09:41:28;;;;;;;0.10;0.10;;;;;;;;;;6216941;28;20062;-75
2024/01/22 09:44:28;;;;;;;0.10;0.10;;;;;;;;;;6213500;28;20064;-75
2024/01/22 09:47:28;;;;;;;0.10;0.10;;;;;;;;;;6224991;28;20152;-75
2024/01/22 09:50:29;;;;;;;0.20;0.20;;;;;;;;;;6243897;28;20021;-75
2024/01/22 09:53:30;;;;;;;0.20;0.20;;;;;;;;;;6241517;28;20017;-75
2024/01/22 09:56:30;;;;;;;0.20;0.20;;;;;;;;;;6243856;28;20025;-75
2024/01/22 09:59:31;;;;;;;0.20;0.20;;;;;;;;;;6244255;28;20014;-75
2024/01/22 10:02:31;;;;;;;0.10;0.10;;;;;;;;;;6225636;28;20048;-75
2024/01/22 10:05:32;;;;;;;0.10;0.10;;;;;;;;;;6243551;28;20032;-75
2024/01/22 10:08:32;;;;;;;0.10;0.10;;;;;;;;;;6220862;28;20119;-75
2024/01/22 10:11:32;;;;;;;0.10;0.10;;;;;;;;;;6239959;28;20025;-75
2024/01/22 10:14:37;;;;;;;0.20;0.20;;;;;;;;;;6231650;28;20028;-76
2024/01/22 10:17:37;;;;;;;0.20;0.20;;;;;;;;;;6224848;28;20391;-76
2024/01/22 10:20:38;;;;;;;0.10;0.10;;;;;;;;;;6220364;28;20021;-75
2024/01/22 10:23:40;;;;;;;0.10;0.10;;;;;;;;;;6240425;28;20029;-75
2024/01/22 10:26:40;;;;;;;0.15;0.15;;;;;;;;;;6242114;28;20559;-75
2024/01/22 10:29:44;;;;;;;0.10;0.10;;;;;;;;;;6242733;28;20035;-75
2024/01/22 10:32:44;;;;;;;0.20;0.20;;;;;;;;;;6250377;28;20028;-75
2024/01/22 10:35:46;;;;;;;0.10;0.10;;;;;;;;;;6249941;28;20025;-76
2024/01/22 10:38:46;;;;;;;;;;;;;;;;;;6242941;28;20021;-76
2024/01/22 10:41:47;;;;;;;0.10;0.10;;;;;;;;;;6243770;28;19913;-75
2024/01/22 10:44:47;;;;;;;0.20;0.20;;;;;;;;;;6242480;28;20634;-75
2024/01/22 10:47:48;;;;;;;0.20;0.20;;;;;;;;;;6241448;28;20052;-85
2024/01/22 10:50:48;;;;;;;0.20;0.20;;;;;;;;;;6242830;28;20384;-85
2024/01/22 10:53:49;;;;;;;0.20;0.20;;;;;;;;;;6224925;28;20025;-85
2024/01/22 10:56:51;;;;;;;0.20;0.20;;;;;;;;;;6238297;28;20033;-85
2024/01/22 10:59:51;;;;;;;0.15;0.15;;;;;;;;;;6234919;28;20034;-84
2024/01/22 11:02:54;;;;;;;0.20;0.20;;;;;;;;;;6229779;28;20196;-87
2024/01/22 11:05:56;;;;;;;0.20;0.20;;;;;;;;;;6228786;28;20646;-86
2024/01/22 11:08:57;;;;;;;0.20;0.20;;;;;;;;;;6233874;28;20052;-87
2024/01/22 11:12:00;;;;;;;0.10;0.10;;;;;;;;;;6219177;28;20025;-85
2024/01/22 11:15:00;;;;;;;0.20;0.20;;;;;;;;;;6240839;28;20036;-86
2024/01/22 11:18:00;;;;;;;0.10;0.10;;;;;;;;;;6240728;28;20030;-87
2024/01/22 11:21:19;;;;;;;0.10;0.10;;;;;;;;;;6239104;28;20451;-87
2024/01/22 11:24:22;;;;;;;0.20;0.20;;;;;;;;;;6236604;28;20025;-86
2024/01/22 11:27:35;;;;;;;0.20;0.20;;;;;;;;;;6242479;28;20444;-86
2024/01/22 11:30:37;;;;;;;0.10;0.10;;;;;;;;;;6239497;28;20616;-86
2024/01/22 11:33:37;;;;;;;0.20;0.20;;;;;;;;;;6243024;28;20029;-86
2024/01/22 11:36:49;;;;;;;0.10;0.10;;;;;;;;;;6242362;28;20636;-86
2024/01/22 11:39:50;;;;;;;0.17;0.17;;;;;;;;;;6241660;28;20076;-87
2024/01/22 11:42:50;;;;;;;0.20;0.20;;;;;;;;;;6223943;28;20087;-86
2024/01/22 11:45:53;;;;;;;0.20;0.20;;;;;;;;;;6230178;28;20040;-86
2024/01/22 11:48:56;;;;;;;0.10;0.10;;;;;;;;;;6224309;28;20053;-87
2024/01/22 11:51:56;;;;;;;0.10;0.10;;;;;;;;;;6230638;28;20060;-85
2024/01/22 11:54:58;;;;;;;0.10;0.10;;;;;;;;;;6242142;28;20144;-85
2024/01/22 11:57:58;;;;;;;0.10;0.10;;;;;;;;;;6224222;28;20029;-75
2024/01/22 12:01:03;;;;;;;0.10;0.10;;;;;;;;;;6243257;28;20427;-76
2024/01/22 12:04:09;;;;;;;0.20;0.20;;;;;;;;;;6241313;28;20088;-76
2024/01/22 12:07:10;;;;;;;0.10;0.10;;;;;;;;;;6223368;28;20033;-75
2024/01/22 12:10:36;;;;;;;0.20;0.20;;;;;;;;;;6228297;28;20479;-75
2024/01/22 12:13:37;;;;;;;0.10;0.10;;;;;;;;;;6242028;28;20128;-75
2024/01/22 12:16:37;;;;;;;0.10;0.10;;;;;;;;;;6235492;28;20025;-75
2024/01/22 12:19:38;;;;;;;0.10;0.10;;;;;;;;;;6250921;28;20080;-75
2024/01/22 12:22:39;;;;;;;0.10;0.10;;;;;;;;;;6244835;28;20022;-75
2024/01/22 12:25:40;;;;;;;0.10;0.10;;;;;;;;;;6228895;28;20435;-75
2024/01/22 12:28:40;;;;;;;0.10;0.10;;;;;;;;;;6245802;28;20024;-76
2024/01/22 12:31:40;;;;;;;0.10;0.10;;;;;;;;;;6237338;28;20021;-75
2024/01/22 12:34:41;;;;;;;0.10;0.10;;;;;;;;;;6241934;28;20022;-75
2024/01/22 12:37:41;;;;;;;0.10;0.10;;;;;;;;;;6223936;28;20544;-75
2024/01/22 12:40:41;;;;;;;0.10;0.10;;;;;;;;;;6233352;28;20020;-75
2024/01/22 12:43:42;;;;;;;0.10;0.10;;;;;;;;;;6241246;28;20025;-75
2024/01/22 12:46:42;;;;;;;0.10;0.10;;;;;;;;;;6244505;28;20049;-75
2024/01/22 12:49:42;;;;;;;0.10;0.10;;;;;;;;;;6241595;28;20387;-75
2024/01/22 12:52:42;;;;;;;0.10;0.10;;;;;;;;;;6234209;28;20753;-75
2024/01/22 12:55:43;;;;;;;0.10;0.10;;;;;;;;;;6261001;28;20059;-76
2024/01/22 12:58:43;;;;;;;0.20;0.20;;;;;;;;;;6241678;28;20032;-76
2024/01/22 13:01:43;;;;;;;0.10;0.10;;;;;;;;;;6254483;28;20049;-76
2024/01/22 13:04:43;;;;;;;0.10;0.10;;;;;;;;;;6254185;28;20476;-76
2024/01/22 13:07:44;;;;;;;0.10;0.10;;;;;;;;;;6247488;28;20038;-86
2024/01/22 13:10:45;;;;;;;0.10;0.10;;;;;;;;;;6224624;28;20036;-86
2024/01/22 13:13:45;;;;;;;0.10;0.10;;;;;;;;;;6234750;28;20032;-86
2024/01/22 13:16:45;;;;;;;0.10;0.10;;;;;;;;;;6217390;28;20041;-85
2024/01/22 13:19:46;;;;;;;0.10;0.10;;;;;;;;;;6245109;28;20013;-82
2024/01/22 13:22:46;;;;;;;0.10;0.10;;;;;;;;;;6236383;28;20436;-84
2024/01/22 13:25:46;;;;;;;0.20;0.20;;;;;;;;;;6225490;28;20028;-84
2024/01/22 13:28:46;;;;;;;0.20;0.20;;;;;;;;;;6237600;28;20126;-83
2024/01/22 13:31:47;;;;;;;0.10;0.10;;;;;;;;;;6228159;28;20071;-84
2024/01/22 13:34:47;;;;;;;0.10;0.10;;;;;;;;;;6238259;28;20495;-85
2024/01/22 13:37:47;;;;;;;0.20;0.20;;;;;;;;;;6244507;28;20121;-85
2024/01/22 13:40:47;;;;;;;0.10;0.10;;;;;;;;;;6243451;28;20449;-85
2024/01/22 13:43:50;;;;;;;0.10;0.10;;;;;;;;;;6243670;28;20025;-84
2024/01/22 13:46:50;;;;;;;0.20;0.20;;;;;;;;;;6240561;28;20072;-85
2024/01/22 13:49:51;;;;;;;0.10;0.10;;;;;;;;;;6237621;28;20052;-84
2024/01/22 13:52:51;;;;;;;0.20;0.20;;;;;;;;;;6224806;28;20445;-84
2024/01/22 13:55:51;;;;;;;0.10;0.10;;;;;;;;;;6239284;28;20032;-85
2024/01/22 13:58:51;;;;;;;0.20;0.20;;;;;;;;;;6238925;28;20025;-84
2024/01/22 14:01:52;;;;;;;0.20;0.20;;;;;;;;;;6230778;28;20061;-85
2024/01/22 14:04:52;;;;;;;0.20;0.20;;;;;;;;;;6242663;28;20009;-85
2024/01/22 14:07:52;;;;;;;0.10;0.10;;;;;;;;;;6238234;28;20554;-85
2024/01/22 14:10:53;;;;;;;0.10;0.10;;;;;;;;;;6242856;28;20068;-85
2024/01/22 14:13:53;;;;;;;0.20;0.20;;;;;;;;;;6229368;28;20022;-86
2024/01/22 14:16:54;;;;;;;0.10;0.10;;;;;;;;;;6250193;28;20029;-74
2024/01/22 14:19:55;;;;;;;0.20;0.20;;;;;;;;;;6241486;28;20029;-74
2024/01/22 14:22:56;;;;;;;0.20;0.20;;;;;;;;;;6234544;28;20114;-73
2024/01/22 14:25:56;;;;;;;0.10;0.10;;;;;;;;;;6221332;28;20076;-73
2024/01/22 14:28:57;;;;;;;0.20;0.20;;;;;;;;;;6234255;28;20017;-73
2024/01/22 14:31:57;;;;;;;0.20;0.20;;;;;;;;;;6249995;28;20033;-73
2024/01/22 14:34:57;;;;;;;0.10;0.10;;;;;;;;;;6237073;28;20079;-73
2024/01/22 14:37:57;;;;;;;0.20;0.20;;;;;;;;;;6240055;28;20014;-74
2024/01/22 14:40:59;;;;;;;0.20;0.20;;;;;;;;;;6216745;28;20100;-73
2024/01/22 14:44:01;;;;;;;0.10;0.10;;;;;;;;;;6218537;28;20052;-75
2024/01/22 14:47:01;;;;;;;0.20;0.20;;;;;;;;;;6234567;28;20084;-74
2024/01/22 14:50:01;;;;;;;0.20;0.20;;;;;;;;;;6231739;28;20061;-75
2024/01/22 14:53:01;;;;;;;0.20;0.20;;;;;;;;;;6233480;28;20021;-74
2024/01/22 14:56:06;;;;;;;0.20;0.20;;;;;;;;;;6241743;28;20539;-75
2024/01/22 14:59:06;;;;;;;0.20;0.20;;;;;;;;;;6239611;28;20027;-74
2024/01/22 15:02:06;;;;;;;0.20;0.20;;;;;;;;;;6241619;28;20025;-74
2024/01/22 15:05:07;;;;;;;0.17;0.17;;;;;;;;;;6249244;28;20017;-74
2024/01/22 15:08:08;;;;;;;0.20;0.20;;;;;;;;;;6243481;28;20033;-74
2024/01/22 15:11:08;;;;;;;0.20;0.20;;;;;;;;;;6236920;28;20022;-74
2024/01/22 15:14:12;;;;;;;0.10;0.10;;;;;;;;;;6241107;28;20032;-75
2024/01/22 15:17:12;;;;;;;0.20;0.20;;;;;;;;;;6237522;28;20420;-75
2024/01/22 15:20:12;;;;;;;0.20;0.20;;;;;;;;;;6242625;28;20101;-75
2024/01/22 15:23:12;;;;;;;0.20;0.20;;;;;;;;;;6240724;28;20109;-74
2024/01/22 15:26:13;;;;;;;0.20;0.20;;;;;;;;;;6219989;28;20025;-74
2024/01/22 15:29:13;;;;;;;0.20;0.20;;;;;;;;;;6235156;28;20498;-74
2024/01/22 15:32:13;;;;;;;0.20;0.20;;;;;;;;;;6204492;28;20033;-74
2024/01/22 15:35:13;;;;;;;0.10;0.10;;;;;;;;;;6220192;28;20014;-75
2024/01/22 15:38:17;;;;;;;0.17;0.17;;;;;;;;;;6220455;28;20571;-74
2024/01/22 15:41:17;;;;;;;0.20;0.20;;;;;;;;;;6225507;28;20260;-74
2024/01/22 15:44:17;;;;;;;0.20;0.20;;;;;;;;;;6245041;28;20552;-74
2024/01/22 15:47:19;;;;;;;0.20;0.20;;;;;;;;;;6227895;28;20049;-74
2024/01/22 15:50:19;;;;;;;0.13;0.13;;;;;;;;;;6238451;28;20124;-74
2024/01/22 15:53:20;;;;;;;0.20;0.20;;;;;;;;;;6241100;28;20025;-74
2024/01/22 15:56:20;;;;;;;0.13;0.13;;;;;;;;;;6240628;28;20033;-74
2024/01/22 15:59:21;;;;;;;0.20;0.20;;;;;;;;;;6239685;28;20074;-74
2024/01/22 16:02:21;;;;;;;0.10;0.10;;;;;;;;;;6240320;28;20022;-74
2024/01/22 16:05:21;;;;;;;0.10;0.10;;;;;;;;;;6223739;28;20025;-75
2024/01/22 16:08:21;;;;;;;0.10;0.10;;;;;;;;;;6222374;28;20021;-74
2024/01/22 16:11:22;;;;;;;0.10;0.10;;;;;;;;;;6233322;28;20037;-74
2024/01/22 16:14:24;;;;;;;0.10;0.10;;;;;;;;;;6233707;28;20064;-74
2024/01/22 16:17:25;;;;;;;0.10;0.10;;;;;;;;;;6241188;28;20491;-75
2024/01/22 16:20:25;;;;;;;0.20;0.20;;;;;;;;;;6241421;28;20014;-75
2024/01/22 16:23:26;;;;;;;0.10;0.10;;;;;;;;;;6241071;28;20068;-75
2024/01/22 16:26:26;;;;;;;0.20;0.20;;;;;;;;;;6241099;28;20038;-75
2024/01/22 16:29:27;;;;;;;0.10;0.10;;;;;;;;;;6241736;28;20045;-75
2024/01/22 16:32:28;;;;;;;0.20;0.20;;;;;;;;;;6237826;28;20037;-74
2024/01/22 16:35:29;;;;;;;0.10;0.10;;;;;;;;;;6232638;28;20029;-88
2024/01/22 16:38:29;;;;;;;0.10;0.10;;;;;;;;;;6229942;28;20038;-85
2024/01/22 16:41:31;;;;;;;0.20;0.20;;;;;;;;;;6241928;28;20072;-87
2024/01/22 16:44:32;;;;;;;0.20;0.20;;;;;;;;;;6235916;28;20018;-86
2024/01/22 16:47:33;;;;;;;0.20;0.20;;;;;;;;;;6238199;28;20127;-87
2024/01/22 16:50:33;;;;;;;0.13;0.13;;;;;;;;;;6245777;28;20276;-85
2024/01/22 16:53:33;;;;;;;0.20;0.20;;;;;;;;;;6246693;28;20083;-88
2024/01/22 16:56:33;;;;;;;0.10;0.10;;;;;;;;;;6257697;28;20021;-87
2024/01/22 16:59:34;;;;;;;0.20;0.20;;;;;;;;;;6247684;28;20024;-85
2024/01/22 17:02:34;;;;;;;0.20;0.20;;;;;;;;;;6240580;28;20030;-88
2024/01/22 17:05:34;;;;;;;0.20;0.20;;;;;;;;;;6225527;28;20025;-75
2024/01/22 17:08:34;;;;;;;0.20;0.20;;;;;;;;;;6221647;28;20032;-75
2024/01/22 17:11:35;;;;;;;0.20;0.20;;;;;;;;;;6228946;28;20029;-74
2024/01/22 17:14:35;;;;;;;0.10;0.10;;;;;;;;;;6226955;28;20447;-74
2024/01/22 17:17:35;;;;;;;0.17;0.17;;;;;;;;;;6246214;28;20468;-74
2024/01/22 17:20:36;;;;;;;0.20;0.20;;;;;;;;;;6226577;28;20400;-74
2024/01/22 17:23:37;;;;;;;0.20;0.20;;;;;;;;;;6236742;28;20049;-74
2024/01/22 17:26:37;;;;;;;0.20;0.20;;;;;;;;;;6245350;28;20032;-74
2024/01/22 17:29:38;;;;;;;0.20;0.20;;;;;;;;;;6245311;28;20025;-74
2024/01/22 17:32:38;;;;;;;0.10;0.10;;;;;;;;;;6245019;28;20018;-74
2024/01/22 17:35:39;;;;;;;0.20;0.20;;;;;;;;;;6243965;28;20029;-75
2024/01/22 17:38:39;;;;;;;0.20;0.20;;;;;;;;;;6244181;28;20032;-74
2024/01/22 17:41:39;;;;;;;0.10;0.10;;;;;;;;;;6238095;28;20108;-74
2024/01/22 17:44:41;;;;;;;0.10;0.10;;;;;;;;;;6240928;28;20071;-74
2024/01/22 17:47:41;;;;;;;0.10;0.10;;;;;;;;;;6240590;28;20285;-74
2024/01/22 17:50:42;;;;;;;0.20;0.20;;;;;;;;;;6243813;28;20392;-74
2024/01/22 17:53:42;;;;;;;0.20;0.20;;;;;;;;;;6238531;28;20061;-74
2024/01/22 17:56:42;;;;;;;0.20;0.20;;;;;;;;;;6241294;28;20106;-74
2024/01/22 17:59:43;;;;;;;0.10;0.10;;;;;;;;;;6222425;28;20028;-74
2024/01/22 18:02:44;;;;;;;0.20;0.20;;;;;;;;;;6241531;28;20037;-74